Huvudsida
METAR-TAF:

METAR-TAF

Flygplatser :

Jyväskylä flygplats

Jyväskylä, Finland

latitud: 62-24N, longitud: 025-41E, höjd: 141 m

Aktuellt väderrapport

Denna rapport gjordes för 5 minuter sedan, klockan 20:50 UTC
Vind 5 kt från nordväst
Temperatur -15°C
Fuktighet 78%
Tryck 1031 hPa
Sikt 10 km eller mer
Inga moln under 1 500 m eller inga cumulonimbus

METAR: EFJY 212050Z AUTO 31005KT CAVOK M15/M18 Q1031

Tid: 22:55 (20:55 UTC)

Väderprognos

Denna rapport gjordes för 30 minuter sedan, klockan 20:25 UTC
Prognos gäller från 21 kl. 21 UTC till 22 kl. 21 UTC
Vind 5 kt från nord/nordväst
Sikt 10 km eller mer
Inga moln under 1 500 m eller inga cumulonimbus
Blir
från 22 kl. 18 UTC till 22 kl. 20 UTC
Vind 10 kt från sydväst

TAF: EFJY 212025Z 2121/2221 33005KT CAVOK BECMG 2218/2220 23010KT

Aktuella väderrapporter och prognoser från 4000 flygplatser (METAR- och TAF-rapporter).

De tillgängliga stationerna syns som gula och röda prickar på kartan.

För musen över prickarna för att se namnen på stationerna.

Klicka sedan för att få väderrapporter och prognoser.

För att ändra kartan: Klicka på de gröna knapparna med ett svart kors på för att zooma in; den gröna knappen med ett streck på för att zooma ut; eller på de gröna pilarna för angränsande kartor.


METAR-TAF: